Time;durP1;ratioP1;P1;durP2;ratioP2;P2;SDS_P1;SDS_P2;PMS_P1;PMS_P2;Temp;Humidity;BMP_temperature;BMP_pressure;BME280_temperature;BME280_humidity;BME280_pressure;Samples;Min_cycle;Max_cycle;Signal;HPM_P1;HPM_P2
2022/01/19 00:00:50;;;;;;;;;;;;;;;-0.23;84.76;101881.03;5012384;28;19917;-88
2022/01/19 00:03:16;;;;;;;;;;;;;;;-0.24;84.79;101871.28;4994302;28;19925;-88
2022/01/19 00:05:41;;;;;;;;;;;;;;;-0.24;84.55;101890.38;4989665;28;19921;-88
2022/01/19 00:08:07;;;;;;;;;;;;;;;-0.27;84.68;101890.97;5007593;28;20317;-89
2022/01/19 00:10:32;;;;;;;;;;;;;;;-0.27;84.70;101883.59;5011421;28;19921;-89
2022/01/19 00:12:58;;;;;;;;;;;;;;;-0.27;84.68;101883.59;4993205;28;19917;-90
2022/01/19 00:15:24;;;;;;;;;;;;;;;-0.19;84.59;101868.38;4993083;28;19952;-90
2022/01/19 00:17:49;;;;;;;;;;;;;;;-0.18;84.38;101848.97;5011138;28;19952;-89
2022/01/19 00:20:15;;;;;;;;;;;;;;;-0.18;84.38;101878.16;4993271;28;19933;-90
2022/01/19 00:22:40;;;;;;;;;;;;;;;-0.20;84.07;101889.38;4992528;28;19925;-90
2022/01/19 00:25:06;;;;;;;;;;;;;;;-0.19;84.05;101901.09;5011281;28;20384;-89
2022/01/19 00:27:32;;;;;;;;;;;;;;;-0.21;84.26;101893.25;4994096;28;20351;-90
2022/01/19 00:29:57;;;;;;;;;;;;;;;-0.19;84.31;101899.16;5009330;28;19909;-90
2022/01/19 00:32:25;;;;;;;;;;;;;;;-0.24;84.36;101893.88;5012962;28;19921;-89
2022/01/19 00:34:50;;;;;;;;;;;;;;;-0.31;84.56;101892.75;5015040;28;20007;-89
2022/01/19 00:37:16;;;;;;;;;;;;;;;-0.35;84.69;101897.22;5014466;28;20008;-88
2022/01/19 00:39:41;;;;;;;;;;;;;;;-0.43;85.31;101896.09;5014594;28;20016;-89
2022/01/19 00:42:07;;;;;;;;;;;;;;;-0.53;86.01;101907.31;4996614;28;19924;-89
2022/01/19 00:44:32;;;;;;;;;;;;;;;-0.59;85.91;101903.09;4997343;28;19924;-89
2022/01/19 00:46:58;;;;;;;;;;;;;;;-0.63;86.25;101902.13;4980530;28;20459;-89
2022/01/19 00:49:23;;;;;;;;;;;;;;;-0.65;86.50;101915.28;4980177;28;19979;-89
2022/01/19 00:51:49;;;;;;;;;;;;;;;-0.71;86.66;101905.63;4996714;28;19968;-88
2022/01/19 00:54:14;;;;;;;;;;;;;;;-0.72;86.88;101901.28;4997066;28;19925;-90
2022/01/19 00:56:40;;;;;;;;;;;;;;;-0.81;87.48;101889.59;4996758;28;20055;-89
2022/01/19 00:59:06;;;;;;;;;;;;;;;-0.81;87.55;101878.69;5014889;28;19929;-88
2022/01/19 01:01:31;;;;;;;;;;;;;;;-0.88;88.15;101883.78;5013602;28;19919;-87
2022/01/19 01:03:57;;;;;;;;;;;;;;;-0.85;87.84;101885.88;5013639;28;20012;-89
2022/01/19 01:06:22;;;;;;;;;;;;;;;-0.93;88.51;101881.22;5014188;28;19924;-90
2022/01/19 01:08:48;;;;;;;;;;;;;;;-1.01;88.50;101874.63;5014478;28;19918;-91
2022/01/19 01:11:13;;;;;;;;;;;;;;;-1.06;88.85;101874.75;5013951;28;19920;-90
2022/01/19 01:16:38;;;;;;;;;;;;;;;-1.20;89.70;101877.56;5014043;28;20369;-90
2022/01/19 01:19:04;;;;;;;;;;;;;;;-1.25;89.81;101869.50;4980650;28;19921;-90
2022/01/19 01:21:31;;;;;;;;;;;;;;;-1.32;90.45;101871.88;4994866;28;19979;-91
2022/01/19 01:23:57;;;;;;;;;;;;;;;-1.33;90.52;101873.00;4996481;28;19961;-90
2022/01/19 01:26:22;;;;;;;;;;;;;;;-1.37;90.80;101876.69;4994667;28;19956;-91
2022/01/19 01:28:48;;;;;;;;;;;;;;;-1.36;91.29;101870.91;5012414;28;19924;-91
2022/01/19 01:31:13;;;;;;;;;;;;;;;-1.39;91.29;101874.25;4995810;28;20296;-91
2022/01/19 01:33:39;;;;;;;;;;;;;;;-1.45;90.95;101878.22;4995594;28;19921;-91
2022/01/19 01:36:05;;;;;;;;;;;;;;;-1.53;91.23;101873.53;4995803;28;19987;-90
2022/01/19 01:38:30;;;;;;;;;;;;;;;-1.52;90.84;101877.84;4994999;28;19921;-90
2022/01/19 01:40:56;;;;;;;;;;;;;;;-1.55;90.00;101887.47;4979966;28;20277;-91
2022/01/19 01:43:22;;;;;;;;;;;;;;;-1.59;90.68;101893.84;4994783;28;20012;-90
2022/01/19 01:45:52;;;;;;;;;;;;;;;-1.69;91.99;101881.28;4995684;28;20385;-90
2022/01/19 01:48:20;;;;;;;;;;;;;;;-1.73;91.73;101871.31;4981363;28;19918;-91
2022/01/19 01:53:48;;;;;;;;;;;;;;;-1.77;91.06;101875.75;4995830;28;19937;-90
2022/01/19 01:56:16;;;;;;;;;;;;;;;-1.78;91.81;101863.28;4993109;28;19918;-90
2022/01/19 01:58:43;;;;;;;;;;;;;;;-1.76;92.38;101852.91;4992921;28;20341;-91
2022/01/19 02:01:25;;;;;;;;;;;;;;;-1.72;93.41;101843.81;4994966;28;19944;-90
2022/01/19 02:03:50;;;;;;;;;;;;;;;-1.73;93.46;101835.94;4986060;28;20377;-90
2022/01/19 02:15:49;;;;;;;;;;;;;;;-1.75;93.63;101828.13;4975768;28;20009;-89
2022/01/19 02:23:04;;;;;;;;;;;;;;;-1.78;93.53;101812.41;4989983;28;19973;-90
2022/01/19 02:25:35;;;;;;;;;;;;;;;-1.77;93.80;101813.19;4968055;28;19921;-90
2022/01/19 02:41:41;;;;;;;;;;;;;;;-1.97;93.55;101793.56;5000978;28;19940;-89
2022/01/19 02:44:09;;;;;;;;;;;;;;;-2.02;94.21;101788.25;4999591;28;19918;-89
2022/01/19 02:46:54;;;;;;;;;;;;;;;-2.04;94.30;101787.75;4991508;28;19940;-90
2022/01/19 02:49:21;;;;;;;;;;;;;;;-2.07;94.03;101793.84;4994205;28;19926;-89
2022/01/19 02:51:48;;;;;;;;;;;;;;;-2.10;93.39;101785.50;4995886;28;20016;-91
2022/01/19 02:54:14;;;;;;;;;;;;;;;-2.26;94.57;101766.00;5007292;28;20561;-90
2022/01/19 02:56:42;;;;;;;;;;;;;;;-2.36;94.83;101768.97;4991800;28;20018;-90
2022/01/19 02:59:18;;;;;;;;;;;;;;;-2.36;94.09;101753.47;4981444;28;19947;-90
2022/01/19 03:09:41;;;;;;;;;;;;;;;-2.39;96.09;101761.44;4982277;28;20358;-90
2022/01/19 03:12:06;;;;;;;;;;;;;;;-2.40;95.49;101751.69;4991397;28;19957;-90
2022/01/19 03:14:32;;;;;;;;;;;;;;;-2.39;94.85;101756.81;4992544;28;19917;-90
2022/01/19 03:16:57;;;;;;;;;;;;;;;-2.45;94.73;101766.19;4976423;28;20004;-90
2022/01/19 03:19:25;;;;;;;;;;;;;;;-2.52;96.82;101756.88;4992288;28;19917;-91
2022/01/19 03:21:51;;;;;;;;;;;;;;;-2.49;97.41;101753.53;4975952;28;19925;-90
2022/01/19 03:24:16;;;;;;;;;;;;;;;-2.49;96.22;101748.91;4980416;28;19918;-90
2022/01/19 03:26:42;;;;;;;;;;;;;;;-2.52;95.85;101752.25;4983530;28;20053;-90
2022/01/19 03:29:30;;;;;;;;;;;;;;;-2.52;96.63;101746.00;4970763;28;19918;-90
2022/01/19 03:31:55;;;;;;;;;;;;;;;-2.53;97.15;101750.63;4977384;28;19941;-90
2022/01/19 03:34:21;;;;;;;;;;;;;;;-2.54;96.97;101751.72;4986045;28;19926;-90
2022/01/19 03:36:57;;;;;;;;;;;;;;;-2.57;96.86;101746.09;4974534;28;19918;-91
2022/01/19 03:39:23;;;;;;;;;;;;;;;-2.64;97.13;101751.16;4969533;28;19924;-90
2022/01/19 03:41:48;;;;;;;;;;;;;;;-2.71;97.83;101753.50;4986342;28;19924;-89
2022/01/19 03:44:14;;;;;;;;;;;;;;;-2.72;97.92;101749.19;4956878;28;20298;-91
2022/01/19 03:46:54;;;;;;;;;;;;;;;-2.76;98.09;101743.56;4963450;28;19965;-90
2022/01/19 03:49:24;;;;;;;;;;;;;;;-2.77;97.75;101746.56;4960522;28;19918;-90
2022/01/19 03:51:58;;;;;;;;;;;;;;;-2.80;98.24;101758.06;4974127;28;19924;-90
2022/01/19 03:54:24;;;;;;;;;;;;;;;-2.85;98.54;101750.81;4975572;28;19940;-91
2022/01/19 03:56:49;;;;;;;;;;;;;;;-2.83;98.47;101754.81;4974534;28;19917;-91
2022/01/19 03:59:15;;;;;;;;;;;;;;;-2.77;99.14;101741.13;4988568;28;20425;-90
2022/01/19 04:01:40;;;;;;;;;;;;;;;-2.71;99.21;101742.66;4958073;28;19917;-90
2022/01/19 04:09:26;;;;;;;;;;;;;;;-2.79;97.75;101755.03;4984072;28;19925;-89
2022/01/19 04:11:53;;;;;;;;;;;;;;;-2.73;97.30;101758.44;4997414;28;19917;-91
2022/01/19 04:14:21;;;;;;;;;;;;;;;-2.76;97.11;101754.44;4997766;28;20298;-90
2022/01/19 04:16:47;;;;;;;;;;;;;;;-2.86;97.78;101750.00;4996760;28;19925;-90
2022/01/19 04:19:26;;;;;;;;;;;;;;;-2.84;98.31;101753.25;4981472;28;19975;-90
2022/01/19 04:22:00;;;;;;;;;;;;;;;-2.82;98.62;101744.78;4989475;28;20011;-89
2022/01/19 04:24:26;;;;;;;;;;;;;;;-2.83;98.18;101746.69;4996826;28;19928;-90
2022/01/19 04:27:51;;;;;;;;;;;;;;;-2.92;97.72;101724.09;5014608;28;19914;-90
2022/01/19 04:32:47;;;;;;;;;;;;;;;-3.00;97.60;101732.97;4997420;28;19967;-90
2022/01/19 04:35:16;;;;;;;;;;;;;;;-3.04;98.17;101726.53;4978040;28;19921;-90
2022/01/19 05:01:52;;;;;;;;;;;;;;;-3.06;99.35;101706.22;5013116;28;19924;-90
2022/01/19 05:07:53;;;;;;;;;;;;;;;-3.15;100.00;101697.97;4924817;29;20018;-90
2022/01/19 05:15:48;;;;;;;;;;;;;;;-3.29;98.03;101694.50;4976868;28;19947;-91
2022/01/19 05:18:18;;;;;;;;;;;;;;;-3.29;97.62;101702.63;4976779;28;19918;-91
2022/01/19 05:20:45;;;;;;;;;;;;;;;-3.37;99.05;101712.31;4976900;28;19918;-90
2022/01/19 05:23:17;;;;;;;;;;;;;;;-3.40;99.66;101703.97;4961095;28;19925;-90
2022/01/19 05:25:43;;;;;;;;;;;;;;;-3.36;100.00;101696.84;4993168;28;20378;-90
2022/01/19 05:28:19;;;;;;;;;;;;;;;-3.32;100.00;101703.25;4958028;28;19921;-88
2022/01/19 05:30:45;;;;;;;;;;;;;;;-3.31;99.95;101704.84;4959820;28;19921;-89
2022/01/19 05:33:11;;;;;;;;;;;;;;;-3.31;99.86;101704.84;4976222;28;19922;-88
2022/01/19 05:35:36;;;;;;;;;;;;;;;-3.28;100.00;101693.41;4972398;28;19933;-90
2022/01/19 05:38:21;;;;;;;;;;;;;;;-3.32;100.00;101697.84;4973353;28;19918;-90
2022/01/19 05:41:06;;;;;;;;;;;;;;;-3.32;100.00;101709.50;4975752;28;19967;-90
2022/01/19 05:43:33;;;;;;;;;;;;;;;-3.37;100.00;101703.34;4961321;28;19924;-89
2022/01/19 05:45:58;;;;;;;;;;;;;;;-3.44;100.00;101698.34;4960789;28;20365;-90
2022/01/19 05:48:24;;;;;;;;;;;;;;;-3.54;100.00;101703.16;4976754;28;19965;-89
2022/01/19 05:50:54;;;;;;;;;;;;;;;-3.54;100.00;101703.97;4963333;28;19921;-91
2022/01/19 05:53:25;;;;;;;;;;;;;;;-3.56;100.00;101694.53;4975455;28;19917;-91
2022/01/19 05:55:50;;;;;;;;;;;;;;;-3.58;99.41;101694.81;4969904;28;20544;-90
2022/01/19 05:58:16;;;;;;;;;;;;;;;-3.72;98.66;101698.66;4986154;28;19918;-90
2022/01/19 06:00:43;;;;;;;;;;;;;;;-3.74;98.68;101695.41;4973555;28;19918;-90
2022/01/19 06:03:10;;;;;;;;;;;;;;;-3.82;99.26;101689.59;4983156;28;19928;-89
2022/01/19 06:05:56;;;;;;;;;;;;;;;-3.82;99.03;101683.38;4968636;28;19948;-90
2022/01/19 06:08:42;;;;;;;;;;;;;;;-3.85;99.00;101684.78;4974734;28;20381;-90
2022/01/19 06:11:08;;;;;;;;;;;;;;;-3.92;99.48;101681.66;4974039;28;19925;-89
2022/01/19 06:13:34;;;;;;;;;;;;;;;-4.00;100.00;101681.56;4958760;28;19921;-90
2022/01/19 06:16:00;;;;;;;;;;;;;;;-3.99;100.00;101680.44;4990939;28;20016;-90
2022/01/19 06:18:26;;;;;;;;;;;;;;;-3.99;99.59;101667.69;4974670;28;20459;-90
2022/01/19 06:20:52;;;;;;;;;;;;;;;-4.04;100.00;101675.13;4952525;28;19993;-91
2022/01/19 06:23:25;;;;;;;;;;;;;;;-4.03;100.00;101666.69;4953608;28;20036;-90
2022/01/19 06:26:02;;;;;;;;;;;;;;;-4.00;100.00;101666.09;4955661;28;19925;-90
2022/01/19 06:28:28;;;;;;;;;;;;;;;-4.05;100.00;101668.09;4948150;28;20382;-88
2022/01/19 06:30:53;;;;;;;;;;;;;;;-4.10;100.00;101660.06;4963579;28;19972;-86
2022/01/19 06:33:19;;;;;;;;;;;;;;;-4.06;100.00;101653.75;4987283;28;19922;-87
2022/01/19 06:35:45;;;;;;;;;;;;;;;-4.02;100.00;101656.66;4969785;28;19976;-89
2022/01/19 06:38:24;;;;;;;;;;;;;;;-4.04;100.00;101651.53;4989016;28;19921;-90
2022/01/19 06:41:10;;;;;;;;;;;;;;;-4.11;100.00;101661.16;4984005;28;19921;-90
2022/01/19 06:43:38;;;;;;;;;;;;;;;-4.17;100.00;101655.03;4977224;28;20003;-87
2022/01/19 06:46:03;;;;;;;;;;;;;;;-4.11;100.00;101651.13;4984648;28;20437;-88
2022/01/19 06:48:29;;;;;;;;;;;;;;;-4.06;100.00;101642.91;4967128;28;19925;-79
2022/01/19 06:50:56;;;;;;;;;;;;;;;-4.05;100.00;101647.22;4972164;28;19917;-81
2022/01/19 06:53:34;;;;;;;;;;;;;;;-4.03;100.00;101645.00;4974530;28;19996;-81
2022/01/19 06:56:20;;;;;;;;;;;;;;;-4.01;100.00;101634.69;4991025;28;20024;-79
2022/01/19 06:58:47;;;;;;;;;;;;;;;-3.98;100.00;101646.81;4990482;28;20004;-80
2022/01/19 07:01:23;;;;;;;;;;;;;;;-3.94;100.00;101643.22;4979436;28;20016;-82
2022/01/19 07:04:11;;;;;;;;;;;;;;;-3.86;100.00;101650.63;4989452;28;19937;-81
2022/01/19 07:06:36;;;;;;;;;;;;;;;-3.72;100.00;101633.56;4991693;28;20365;-81
2022/01/19 07:09:14;;;;;;;;;;;;;;;-3.60;100.00;101637.38;4990980;28;19944;-82
2022/01/19 07:11:45;;;;;;;;;;;;;;;-3.48;100.00;101634.94;4975042;28;19941;-81
2022/01/19 07:14:13;;;;;;;;;;;;;;;-3.45;100.00;101638.97;4992278;28;19922;-81
2022/01/19 07:16:39;;;;;;;;;;;;;;;-3.42;100.00;101641.84;4992262;28;19936;-83
2022/01/19 07:19:04;;;;;;;;;;;;;;;-3.46;100.00;101638.16;4975014;28;19917;-82
2022/01/19 07:21:30;;;;;;;;;;;;;;;-3.37;100.00;101633.63;4991829;28;19928;-82
2022/01/19 07:23:57;;;;;;;;;;;;;;;-3.32;100.00;101632.72;4992069;28;19996;-81
2022/01/19 07:26:23;;;;;;;;;;;;;;;-3.27;100.00;101634.50;4960256;28;20020;-81
2022/01/19 07:28:49;;;;;;;;;;;;;;;-3.09;100.00;101619.97;4975877;28;20293;-81
2022/01/19 07:31:14;;;;;;;;;;;;;;;-2.95;100.00;101623.44;4992798;28;20377;-81
2022/01/19 07:33:40;;;;;;;;;;;;;;;-2.86;100.00;101633.25;4991931;28;19917;-82
2022/01/19 07:36:05;;;;;;;;;;;;;;;-2.72;100.00;101626.97;4991259;28;20404;-82
2022/01/19 07:38:31;;;;;;;;;;;;;;;-2.60;99.89;101622.56;4992211;28;20324;-82
2022/01/19 07:40:56;;;;;;;;;;;;;;;-2.54;99.36;101624.03;4973941;28;19917;-81
2022/01/19 07:43:23;;;;;;;;;;;;;;;-2.46;98.65;101617.03;4975557;28;19967;-81
2022/01/19 07:45:54;;;;;;;;;;;;;;;-2.38;99.01;101622.53;4993255;28;19929;-81
2022/01/19 07:48:49;;;;;;;;;;;;;;;-2.24;98.39;101613.50;4975837;28;19921;-81
2022/01/19 07:51:27;;;;;;;;;;;;;;;-2.07;97.44;101619.00;4975660;28;20028;-81
2022/01/19 07:54:13;;;;;;;;;;;;;;;-2.02;98.85;101614.22;4982417;28;19922;-81
2022/01/19 07:56:55;;;;;;;;;;;;;;;-1.91;98.03;101612.84;4991817;28;19980;-81
2022/01/19 07:59:39;;;;;;;;;;;;;;;-1.76;97.16;101608.88;4992573;28;20381;-81
2022/01/19 08:02:07;;;;;;;;;;;;;;;-1.67;97.47;101615.13;4991927;28;21043;-81
2022/01/19 08:04:54;;;;;;;;;;;;;;;-1.54;97.05;101605.25;4970700;28;19921;-81
2022/01/19 08:07:23;;;;;;;;;;;;;;;-1.49;96.66;101597.72;4990829;28;20109;-81
2022/01/19 08:09:50;;;;;;;;;;;;;;;-1.44;96.36;101605.72;4974557;28;19917;-81
2022/01/19 08:12:16;;;;;;;;;;;;;;;-1.38;96.84;101595.50;4958526;28;19920;-81
2022/01/19 08:14:44;;;;;;;;;;;;;;;-1.29;97.32;101601.75;4990667;28;20392;-81
2022/01/19 08:17:12;;;;;;;;;;;;;;;-1.14;96.48;101603.19;4974324;28;19913;-81
2022/01/19 08:19:39;;;;;;;;;;;;;;;-1.11;96.36;101584.28;4974773;28;19968;-81
2022/01/19 08:22:05;;;;;;;;;;;;;;;-1.08;95.66;101588.28;4981174;28;20326;-80
2022/01/19 08:24:32;;;;;;;;;;;;;;;-1.01;95.66;101581.22;4971520;28;19925;-80
2022/01/19 08:27:00;;;;;;;;;;;;;;;-0.84;94.71;101579.63;4987370;28;20376;-80
2022/01/19 08:29:35;;;;;;;;;;;;;;;-0.75;94.14;101580.41;4987781;28;20365;-81
2022/01/19 08:32:05;;;;;;;;;;;;;;;-0.65;92.77;101571.91;4987213;28;20377;-81
2022/01/19 08:34:59;;;;;;;;;;;;;;;-0.55;92.16;101571.53;4991849;28;19936;-80
2022/01/19 08:37:45;;;;;;;;;;;;;;;-0.54;91.67;101573.16;5003120;28;19918;-81
2022/01/19 08:40:12;;;;;;;;;;;;;;;-0.58;91.58;101574.94;5004208;28;19933;-81
2022/01/19 08:42:43;;;;;;;;;;;;;;;-0.43;91.54;101574.41;4987992;28;19913;-80
2022/01/19 08:45:10;;;;;;;;;;;;;;;-0.43;90.59;101579.84;4987617;28;19952;-81
2022/01/19 08:47:36;;;;;;;;;;;;;;;-0.38;90.06;101565.25;5003571;28;20208;-81
2022/01/19 08:50:08;;;;;;;;;;;;;;;-0.34;90.49;101558.00;4968538;28;20440;-80
2022/01/19 08:52:43;;;;;;;;;;;;;;;-0.30;90.31;101565.22;4992436;28;19922;-80
2022/01/19 08:55:24;;;;;;;;;;;;;;;-0.17;89.09;101561.47;4993879;28;19914;-81
2022/01/19 08:57:51;;;;;;;;;;;;;;;-0.10;88.97;101560.94;4995237;28;19928;-81
2022/01/19 09:00:17;;;;;;;;;;;;;;;-0.05;88.82;101558.06;4994962;28;19920;-81
2022/01/19 09:02:42;;;;;;;;;;;;;;;-0.02;88.51;101563.66;4995058;28;19996;-81
2022/01/19 09:05:08;;;;;;;;;;;;;;;0.06;89.04;101555.75;4994780;28;20036;-81
2022/01/19 09:07:33;;;;;;;;;;;;;;;0.15;88.44;101556.50;4977669;28;19917;-81
2022/01/19 09:09:59;;;;;;;;;;;;;;;0.28;88.01;101545.34;4994886;28;20008;-80
2022/01/19 09:12:24;;;;;;;;;;;;;;;0.36;87.12;101535.50;4994834;28;20004;-81
2022/01/19 09:14:50;;;;;;;;;;;;;;;0.53;87.15;101540.03;4994841;28;20392;-81
2022/01/19 09:17:15;;;;;;;;;;;;;;;0.55;86.37;101544.03;4994752;28;19916;-81
2022/01/19 09:19:41;;;;;;;;;;;;;;;0.62;86.23;101527.91;4994795;28;19918;-80
2022/01/19 09:22:07;;;;;;;;;;;;;;;0.74;85.51;101527.97;4994571;28;19936;-81
2022/01/19 09:24:33;;;;;;;;;;;;;;;0.84;85.65;101530.28;4994613;28;19917;-81
2022/01/19 09:26:59;;;;;;;;;;;;;;;0.79;86.17;101522.28;4994853;28;20289;-80
2022/01/19 09:29:24;;;;;;;;;;;;;;;0.88;85.79;101525.75;4994340;28;19918;-81
2022/01/19 09:31:49;;;;;;;;;;;;;;;0.94;85.86;101520.88;4993599;28;19972;-81
2022/01/19 09:34:19;;;;;;;;;;;;;;;1.02;85.73;101519.97;4994219;28;19914;-80
2022/01/19 09:36:45;;;;;;;;;;;;;;;0.99;85.50;101520.66;4994522;28;19918;-80
2022/01/19 09:39:11;;;;;;;;;;;;;;;0.98;84.80;101516.31;4993996;28;20492;-80
2022/01/19 09:41:36;;;;;;;;;;;;;;;1.09;84.24;101503.06;4994500;28;20382;-80
2022/01/19 09:44:02;;;;;;;;;;;;;;;1.04;83.90;101511.47;4993175;28;19925;-81
2022/01/19 09:46:29;;;;;;;;;;;;;;;1.18;84.88;101506.47;4994122;28;19921;-81
2022/01/19 09:48:55;;;;;;;;;;;;;;;1.32;84.26;101498.78;4994325;28;20004;-81
2022/01/19 09:51:20;;;;;;;;;;;;;;;1.36;83.55;101491.50;4994077;28;20001;-81
2022/01/19 09:53:46;;;;;;;;;;;;;;;1.37;83.18;101485.69;4994184;28;19917;-81
2022/01/19 09:56:11;;;;;;;;;;;;;;;1.55;83.76;101483.53;4976875;28;20437;-81
2022/01/19 09:58:37;;;;;;;;;;;;;;;1.70;82.57;101474.63;4993996;28;19918;-80
2022/01/19 10:01:02;;;;;;;;;;;;;;;1.87;82.30;101473.59;4993835;28;19923;-81
2022/01/19 10:03:29;;;;;;;;;;;;;;;2.03;81.85;101474.50;4993114;28;19969;-81
2022/01/19 10:05:55;;;;;;;;;;;;;;;2.19;79.83;101469.09;4993597;28;19917;-80
2022/01/19 10:08:28;;;;;;;;;;;;;;;2.31;79.80;101460.84;4993715;28;19972;-80
2022/01/19 10:11:06;;;;;;;;;;;;;;;2.38;78.84;101457.53;4993998;28;20456;-81
2022/01/19 10:19:22;;;;;;;;;;;;;;;2.63;78.96;101439.88;4993690;28;19918;-81
2022/01/19 10:21:56;;;;;;;;;;;;;;;2.87;77.72;101417.03;4993809;28;19918;-81
2022/01/19 10:24:41;;;;;;;;;;;;;;;2.95;76.88;101422.34;4993181;28;19917;-81
2022/01/19 10:27:19;;;;;;;;;;;;;;;3.15;76.78;101406.81;4993290;28;19923;-81
2022/01/19 10:29:45;;;;;;;;;;;;;;;3.32;75.86;101389.19;4993371;28;19924;-81
2022/01/19 10:32:10;;;;;;;;;;;;;;;3.30;75.54;101392.28;4993324;28;19918;-81
2022/01/19 10:34:35;;;;;;;;;;;;;;;3.40;75.12;101389.00;4993351;28;20061;-81
2022/01/19 10:37:02;;;;;;;;;;;;;;;3.47;74.77;101380.94;4993573;28;20007;-81
2022/01/19 10:39:38;;;;;;;;;;;;;;;3.45;75.39;101385.19;4975573;28;20406;-81
2022/01/19 10:42:04;;;;;;;;;;;;;;;3.59;74.32;101382.78;4975969;28;19924;-81
2022/01/19 10:44:49;;;;;;;;;;;;;;;3.63;74.02;101378.19;4992903;28;19917;-81
2022/01/19 10:47:17;;;;;;;;;;;;;;;3.70;73.74;101362.66;4992180;28;19968;-81
2022/01/19 10:49:53;;;;;;;;;;;;;;;3.85;73.61;101365.69;4976012;28;19920;-81
2022/01/19 10:52:31;;;;;;;;;;;;;;;3.92;72.90;101349.41;4992972;28;20056;-81
2022/01/19 10:54:57;;;;;;;;;;;;;;;4.10;73.06;101345.88;4992996;28;19960;-81
2022/01/19 10:57:23;;;;;;;;;;;;;;;4.24;72.52;101345.38;4959425;28;19957;-81
2022/01/19 10:59:50;;;;;;;;;;;;;;;4.13;71.83;101336.91;4975451;28;20330;-81
2022/01/19 11:02:15;;;;;;;;;;;;;;;4.08;71.70;101328.16;4975397;28;19928;-81
2022/01/19 11:04:42;;;;;;;;;;;;;;;4.33;71.12;101315.69;4992505;28;19986;-81
2022/01/19 11:07:08;;;;;;;;;;;;;;;4.60;70.29;101314.66;4993079;28;19925;-81
2022/01/19 11:09:45;;;;;;;;;;;;;;;4.70;68.70;101310.47;4992512;28;19921;-82
2022/01/19 11:12:14;;;;;;;;;;;;;;;4.81;69.28;101313.44;4976386;28;19921;-81
2022/01/19 11:14:40;;;;;;;;;;;;;;;4.76;68.76;101309.03;4992428;28;19920;-81
2022/01/19 11:17:09;;;;;;;;;;;;;;;4.65;68.24;101302.56;4992833;28;20055;-82
2022/01/19 11:19:38;;;;;;;;;;;;;;;4.69;68.70;101290.44;4992689;28;19960;-82
2022/01/19 11:22:14;;;;;;;;;;;;;;;4.79;67.91;101280.00;4992741;28;20440;-81
2022/01/19 11:24:56;;;;;;;;;;;;;;;4.83;68.68;101272.59;4990889;28;19997;-81
2022/01/19 11:27:22;;;;;;;;;;;;;;;5.10;66.98;101266.75;4975131;28;20389;-82
2022/01/19 11:30:06;;;;;;;;;;;;;;;5.16;67.35;101256.25;4992265;28;20037;-82
2022/01/19 11:32:32;;;;;;;;;;;;;;;5.35;67.29;101256.13;4974910;28;19918;-82
2022/01/19 11:34:57;;;;;;;;;;;;;;;5.38;66.22;101247.09;4992524;28;20278;-82
2022/01/19 11:37:35;;;;;;;;;;;;;;;5.32;66.00;101245.88;4992070;28;19956;-81
2022/01/19 11:40:02;;;;;;;;;;;;;;;5.36;65.83;101238.44;4992280;28;20027;-81
2022/01/19 11:42:27;;;;;;;;;;;;;;;5.49;66.42;101239.00;4974950;28;20388;-81
2022/01/19 11:44:53;;;;;;;;;;;;;;;5.36;65.58;101232.94;4992002;28;19976;-81
2022/01/19 11:47:21;;;;;;;;;;;;;;;5.37;65.94;101229.03;4992153;28;19917;-82
2022/01/19 11:49:58;;;;;;;;;;;;;;;5.33;65.80;101228.19;4992033;28;19964;-81
2022/01/19 11:52:49;;;;;;;;;;;;;;;5.13;66.42;101222.03;4988700;28;20016;-81
2022/01/19 11:55:22;;;;;;;;;;;;;;;5.08;66.88;101205.84;4980496;28;19921;-79
2022/01/19 11:57:48;;;;;;;;;;;;;;;5.32;66.62;101214.81;4982292;28;19925;-82
2022/01/19 12:00:13;;;;;;;;;;;;;;;5.53;66.24;101196.63;4980486;28;19914;-81
2022/01/19 12:02:50;;;;;;;;;;;;;;;5.63;64.98;101204.19;4989151;28;19929;-82
2022/01/19 12:05:20;;;;;;;;;;;;;;;5.66;65.16;101199.91;5000557;28;19978;-81
2022/01/19 12:07:53;;;;;;;;;;;;;;;5.62;65.16;101191.59;4997957;28;20365;-81
2022/01/19 12:10:20;;;;;;;;;;;;;;;5.43;65.15;101179.97;4981990;28;19972;-82
2022/01/19 12:13:08;;;;;;;;;;;;;;;5.35;65.51;101170.81;5000218;28;19960;-81
2022/01/19 12:15:46;;;;;;;;;;;;;;;5.62;65.35;101177.06;4999703;28;20016;-81
2022/01/19 12:18:24;;;;;;;;;;;;;;;5.59;64.57;101161.28;4999501;28;19984;-81
2022/01/19 12:20:50;;;;;;;;;;;;;;;5.86;64.38;101161.97;4983335;28;19957;-81
2022/01/19 12:23:25;;;;;;;;;;;;;;;6.03;64.06;101147.59;4998451;28;19918;-81
2022/01/19 12:25:54;;;;;;;;;;;;;;;6.16;63.04;101148.13;4999227;28;19927;-81
2022/01/19 12:28:43;;;;;;;;;;;;;;;6.18;63.83;101138.31;5000414;28;19921;-80
2022/01/19 12:31:23;;;;;;;;;;;;;;;6.17;62.98;101139.47;4998633;28;19925;-81
2022/01/19 12:34:09;;;;;;;;;;;;;;;6.17;62.56;101114.69;5002879;28;19928;-80
2022/01/19 12:36:40;;;;;;;;;;;;;;;6.16;62.37;101132.38;4996541;28;19928;-81
2022/01/19 12:39:24;;;;;;;;;;;;;;;6.36;62.63;101114.44;5001844;28;19941;-80
2022/01/19 12:41:56;;;;;;;;;;;;;;;6.32;61.65;101097.09;5001957;28;20411;-81
2022/01/19 12:44:37;;;;;;;;;;;;;;;6.27;62.05;101096.66;5001059;28;19979;-81
2022/01/19 12:47:03;;;;;;;;;;;;;;;6.32;62.56;101088.81;5004373;28;19921;-81
2022/01/19 12:49:29;;;;;;;;;;;;;;;6.31;62.84;101094.72;4984218;28;19972;-81
2022/01/19 12:51:54;;;;;;;;;;;;;;;6.38;62.15;101076.28;5003799;28;19917;-81
2022/01/19 12:54:24;;;;;;;;;;;;;;;6.41;61.93;101072.75;5003906;28;19940;-81
2022/01/19 12:56:54;;;;;;;;;;;;;;;6.47;61.51;101065.69;5004229;28;19929;-82
2022/01/19 12:59:19;;;;;;;;;;;;;;;6.65;61.65;101053.97;4987093;28;20297;-82
2022/01/19 13:01:44;;;;;;;;;;;;;;;6.72;61.08;101054.81;5003195;28;19917;-82
2022/01/19 13:04:10;;;;;;;;;;;;;;;6.96;61.27;101045.06;5002348;28;20004;-82
2022/01/19 13:06:35;;;;;;;;;;;;;;;7.13;60.64;101036.06;4999133;28;19917;-82
2022/01/19 13:09:08;;;;;;;;;;;;;;;7.12;60.60;101034.47;5000320;28;19925;-82
2022/01/19 13:11:50;;;;;;;;;;;;;;;7.03;60.69;101023.84;4999503;28;20202;-82
2022/01/19 13:14:15;;;;;;;;;;;;;;;6.70;60.79;101006.75;4998910;28;19926;-82
2022/01/19 13:16:45;;;;;;;;;;;;;;;6.61;61.29;101014.56;4983974;28;20381;-82
2022/01/19 13:19:12;;;;;;;;;;;;;;;6.51;61.47;101005.88;5002163;28;19932;-81
2022/01/19 13:21:38;;;;;;;;;;;;;;;6.63;61.17;101003.97;4993869;28;19956;-82
2022/01/19 13:24:17;;;;;;;;;;;;;;;6.65;61.39;100996.09;4999609;28;20392;-81
2022/01/19 13:26:45;;;;;;;;;;;;;;;6.61;61.72;100998.03;4985523;28;19917;-81
2022/01/19 13:29:21;;;;;;;;;;;;;;;6.53;61.92;100992.50;5008012;28;20394;-81
2022/01/19 13:31:54;;;;;;;;;;;;;;;6.69;61.62;100994.94;5000323;28;19918;-81
2022/01/19 13:34:19;;;;;;;;;;;;;;;6.72;61.08;100982.31;4997852;28;19917;-81
2022/01/19 13:36:45;;;;;;;;;;;;;;;6.66;61.81;100981.13;5005925;28;20447;-82
2022/01/19 13:39:10;;;;;;;;;;;;;;;6.55;62.07;100984.63;4987981;28;19921;-81
2022/01/19 13:41:42;;;;;;;;;;;;;;;6.74;61.49;100979.97;4992240;28;19964;-82
2022/01/19 13:44:09;;;;;;;;;;;;;;;6.46;61.71;100970.41;4991253;28;20369;-81
2022/01/19 13:46:38;;;;;;;;;;;;;;;6.14;62.65;100977.72;4991878;28;19965;-82
2022/01/19 13:49:04;;;;;;;;;;;;;;;6.04;62.62;100965.44;4990843;28;19927;-81
2022/01/19 13:51:30;;;;;;;;;;;;;;;6.06;62.68;100965.06;4991469;28;20328;-81
2022/01/19 13:53:55;;;;;;;;;;;;;;;6.16;63.00;100955.28;5006950;28;19944;-81
2022/01/19 13:56:31;;;;;;;;;;;;;;;6.08;63.46;100960.75;4993310;28;19953;-81
2022/01/19 13:59:16;;;;;;;;;;;;;;;6.12;63.62;100949.75;4984047;28;20300;-81
2022/01/19 14:01:50;;;;;;;;;;;;;;;6.16;63.23;100961.59;4999660;28;19913;-81
2022/01/19 14:04:16;;;;;;;;;;;;;;;6.35;63.41;100961.28;5009781;28;19928;-81
2022/01/19 14:06:45;;;;;;;;;;;;;;;6.18;63.15;100953.75;5010878;28;19917;-82
2022/01/19 14:09:31;;;;;;;;;;;;;;;6.22;63.29;100943.53;4998431;28;19928;-81
2022/01/19 14:11:56;;;;;;;;;;;;;;;6.26;63.48;100944.34;4991147;28;20039;-81
2022/01/19 14:14:23;;;;;;;;;;;;;;;5.92;64.09;100932.72;4991164;28;19917;-81
2022/01/19 14:16:49;;;;;;;;;;;;;;;5.72;64.49;100931.38;4993661;28;19929;-81
2022/01/19 14:19:15;;;;;;;;;;;;;;;5.55;65.44;100932.81;4999025;28;19922;-81
2022/01/19 14:21:53;;;;;;;;;;;;;;;5.43;65.86;100924.84;4998532;28;19921;-81